Aérodrome :
LOGIN :

S'inscrire | Disclaimer

   EN    FR    IT 

 










Légende :    VFR   VFR Marginal   IFR   IFR Intensif   IFR Très Intensif
Visi : 
Plafond : 
>= 8 km
>= 3000ft
5 à 8 km
1000 à 3000 ft
1500m à 5 km
500 à 1000 ft
800 à 1500m
200 à 500 ft
< 800m
< 200 ft
Symboles :   Orages  Brouillard  Fortes neiges  Fortes précipitations  Vent > 20 kt
SIGMETs :   Divers  Orages  Givrage  Turbulence  Onde Orograph.  Cendres Volcan.







- Altitude de l'aérodrome : 364 ft
- Voir les cartes d'approche


LFAQ - Albert Bray

DERNIER METAR :
  • 201330Z AUTO 20006KT 170V230 9999 FEW008 10/07 Q1023 NOSIG

METARs EXPIRÉS :
  • 201300Z AUTO 19005KT 150V220 9999 FEW005 09/08 Q1023 NOSIG
  • 201230Z AUTO 17004KT 130V210 7000 BKN004 06/06 Q1024 BECMG NSC
  • 201200Z AUTO 19006KT 3400 -DZ BR VV/// 06/05 Q1024 BECMG 8000 NSW NSC
  • 201130Z AUTO 19007KT 170V230 4100 BR OVC002 04/04 Q1024 BECMG 8000 NSW NSC
  • 201100Z AUTO 19006KT 150V220 5000 BR VV/// 04/04 Q1024 BECMG NSC

TAF TAF LFAQ
Valide du 20 à 12h jusqu'au 20 à 21h UTC


201100Z 2012/2021 20010KT 5000 BR BKN002
BECMG 2012/2014 8000 NSW NSC
Pas de NOTAMs connus pour ce terrain.



MET'MAP, la Météo Aéronautique d'un coup d'oeil ! - Copyright ORBIFLY Décembre 2007 - Disclaimer

ORBIFLY MET'MAP TEAM :

Programmation & Développement : Alexandra Zaïnal
Conception & Développement : Baudouin d'Aumeries
Co-Programmation & Développement : Marc-Olivier Méhu
Soutien technique & logistique : Manuel Goepfert

Contact : metmap@orbifly.com




SOURCES & CREDITS :

   NOAA